Huvudsida
METAR-TAF:

METAR-TAF

Flygplatser :

Taif, Saudiarabien

latitud: 21-29N, longitud: 040-33E, höjd: 1478 m

Aktuellt väderrapport

Denna rapport gjordes för 1 timme och 19 minuter sedan, klockan 20:00 UTC
Vind 4 kt från syd/sydväst
Temperatur 20°C
Fuktighet 60%
Tryck 1023 hPa
Sikt 10 km eller mer
Få moln på en höjd av 2500 ft

METAR: OETF 212000Z 21004KT 9999 FEW025 20/12 Q1023 NOSIG

Tid: 00:19 (21:19 UTC)

Väderprognos

Denna rapport gjordes för 4 timmar och 19 minuter sedan, klockan 17:00 UTC
Prognos gäller från 21 kl. 18 UTC till 22 kl. 12 UTC
Vind 12 kt från väst/sydväst
Sikt: 8000 m
Få moln på en höjd av 3000 ft
Temporärt
från 21 kl. 18 UTC till 21 kl. 24 UTC
Få moln på en höjd av 2500 ft, Cumulonimbus.
Spridda moln på en höjd av 3000 ft

TAF: OETF 211700Z 2118/2212 25012KT 8000 FEW030 TEMPO 2118/2124 FEW025CB SCT030

Aktuella väderrapporter och prognoser från 4000 flygplatser (METAR- och TAF-rapporter).

De tillgängliga stationerna syns som gula och röda prickar på kartan.

För musen över prickarna för att se namnen på stationerna.

Klicka sedan för att få väderrapporter och prognoser.

För att ändra kartan: Klicka på de gröna knapparna med ett svart kors på för att zooma in; den gröna knappen med ett streck på för att zooma ut; eller på de gröna pilarna för angränsande kartor.


METAR-TAF: